createdAt,value
2017-07-16T00:01:00.911Z,0
2017-07-16T00:02:02.101Z,0
2017-07-16T00:03:01.380Z,0
2017-07-16T00:03:59.634Z,0
2017-07-16T00:05:14.054Z,0
2017-07-16T00:06:03.352Z,0
2017-07-16T00:06:50.902Z,0
2017-07-16T00:07:50.917Z,0
2017-07-16T00:08:51.589Z,0
2017-07-16T00:09:51.205Z,0
2017-07-16T00:11:05.043Z,0
2017-07-16T00:11:51.319Z,0
2017-07-16T00:12:51.780Z,0
2017-07-16T00:13:51.232Z,0
2017-07-16T00:14:51.315Z,0
2017-07-16T00:17:05.318Z,0
2017-07-16T00:17:51.261Z,0
2017-07-16T00:18:51.601Z,0
2017-07-16T00:19:51.578Z,0
2017-07-16T00:21:02.520Z,0
2017-07-16T00:21:51.610Z,0
2017-07-16T00:22:51.231Z,0
2017-07-16T00:23:50.787Z,0
2017-07-16T00:24:51.575Z,0
2017-07-16T00:26:02.290Z,0
2017-07-16T00:26:51.240Z,0
2017-07-16T00:27:51.237Z,0
2017-07-16T00:28:51.628Z,0
2017-07-16T00:29:51.233Z,0
2017-07-16T00:31:02.539Z,0
2017-07-16T00:31:50.917Z,0
2017-07-16T00:32:51.112Z,0
2017-07-16T00:33:50.908Z,0
2017-07-16T00:34:50.899Z,0
2017-07-16T00:35:57.659Z,0
2017-07-16T00:36:51.629Z,0
2017-07-16T00:37:51.288Z,0
2017-07-16T00:38:51.244Z,0
2017-07-16T00:39:51.386Z,0
2017-07-16T00:40:59.239Z,0
2017-07-16T00:41:51.228Z,0
2017-07-16T00:42:51.308Z,0
2017-07-16T00:43:51.589Z,0
2017-07-16T00:44:50.917Z,0
2017-07-16T00:45:59.467Z,0
2017-07-16T00:46:51.243Z,0
2017-07-16T00:47:53.480Z,0
2017-07-16T00:48:50.592Z,0
2017-07-16T00:49:51.290Z,0
2017-07-16T00:51:00.198Z,0
2017-07-16T00:51:51.233Z,0
2017-07-16T00:52:50.960Z,0
2017-07-16T00:53:51.441Z,0
2017-07-16T00:54:51.257Z,0
2017-07-16T00:55:58.775Z,0
2017-07-16T00:56:50.556Z,0
2017-07-16T00:57:50.948Z,0
2017-07-16T00:58:51.255Z,0
2017-07-16T00:59:50.557Z,0
2017-07-16T01:00:59.062Z,0
2017-07-16T01:01:51.242Z,0
2017-07-16T01:02:52.254Z,0
2017-07-16T01:03:51.567Z,0
2017-07-16T01:04:51.247Z,0
2017-07-16T01:06:02.099Z,0
2017-07-16T01:06:51.232Z,0
2017-07-16T01:07:51.616Z,0
2017-07-16T01:08:51.585Z,0
2017-07-16T01:09:50.558Z,0
2017-07-16T01:11:01.277Z,0
2017-07-16T01:11:51.291Z,0
2017-07-16T01:12:51.247Z,0
2017-07-16T01:13:51.587Z,0
2017-07-16T01:14:51.391Z,0
2017-07-16T01:16:02.272Z,0
2017-07-16T01:16:51.075Z,0
2017-07-16T01:17:50.923Z,0
2017-07-16T01:18:52.117Z,0
2017-07-16T01:19:51.288Z,0
2017-07-16T01:20:58.703Z,0
2017-07-16T01:21:50.561Z,0
2017-07-16T01:22:51.237Z,0
2017-07-16T01:23:51.651Z,0
2017-07-16T01:24:50.886Z,0
2017-07-16T01:26:01.276Z,0
2017-07-16T01:26:51.221Z,0
2017-07-16T01:27:51.231Z,0
2017-07-16T01:28:51.609Z,0
2017-07-16T01:29:51.033Z,0
2017-07-16T01:31:02.551Z,0
2017-07-16T01:31:51.242Z,0
2017-07-16T01:32:51.642Z,0
2017-07-16T01:33:51.266Z,0
2017-07-16T01:34:50.897Z,0
2017-07-16T01:36:02.339Z,0
2017-07-16T01:36:51.571Z,0
2017-07-16T01:37:50.607Z,0
2017-07-16T01:38:51.682Z,0
2017-07-16T01:39:51.224Z,0
2017-07-16T01:40:59.597Z,0
2017-07-16T01:41:51.247Z,0
2017-07-16T01:42:50.559Z,0
2017-07-16T01:43:51.305Z,0
2017-07-16T01:44:51.236Z,0
2017-07-16T01:45:59.837Z,0
2017-07-16T01:46:51.490Z,0
2017-07-16T01:47:50.921Z,0
2017-07-16T01:48:51.973Z,0
2017-07-16T01:49:51.591Z,0
2017-07-16T01:50:58.687Z,0
2017-07-16T01:51:51.241Z,0
2017-07-16T01:52:50.890Z,0
2017-07-16T01:53:51.316Z,0
2017-07-16T01:54:51.299Z,0
2017-07-16T01:56:00.987Z,0
2017-07-16T01:56:51.265Z,0
2017-07-16T01:57:51.555Z,0
2017-07-16T01:58:51.612Z,0
2017-07-16T01:59:51.036Z,0
2017-07-16T02:01:00.367Z,0
2017-07-16T02:01:50.895Z,0
2017-07-16T02:02:51.556Z,0
2017-07-16T02:03:51.367Z,0
2017-07-16T02:04:51.068Z,0
2017-07-16T02:06:03.853Z,0
2017-07-16T02:06:50.950Z,0
2017-07-16T02:07:51.564Z,0
2017-07-16T02:08:50.947Z,0
2017-07-16T02:09:51.562Z,0
2017-07-16T02:11:00.739Z,0
2017-07-16T02:11:51.649Z,0
2017-07-16T02:12:51.227Z,0
2017-07-16T02:13:51.601Z,0
2017-07-16T02:14:51.268Z,0
2017-07-16T02:16:02.459Z,0
2017-07-16T02:16:51.391Z,0
2017-07-16T02:17:50.931Z,0
2017-07-16T02:18:50.926Z,0
2017-07-16T02:19:51.217Z,0
2017-07-16T02:21:01.771Z,0
2017-07-16T02:21:50.888Z,0
2017-07-16T02:22:51.211Z,0
2017-07-16T02:23:51.553Z,0
2017-07-16T02:24:51.361Z,0
2017-07-16T02:26:02.309Z,0
2017-07-16T02:26:51.041Z,0
2017-07-16T02:27:51.053Z,0
2017-07-16T02:28:50.875Z,0
2017-07-16T02:29:51.273Z,0
2017-07-16T02:31:02.964Z,0
2017-07-16T02:31:51.201Z,0
2017-07-16T02:32:50.902Z,0
2017-07-16T02:33:50.530Z,0
2017-07-16T02:34:51.014Z,0
2017-07-16T02:36:03.607Z,0
2017-07-16T02:36:50.946Z,0
2017-07-16T02:37:50.877Z,0
2017-07-16T02:38:51.238Z,0
2017-07-16T02:39:51.249Z,0
2017-07-16T02:40:57.451Z,0
2017-07-16T02:41:51.252Z,0
2017-07-16T02:42:51.236Z,0
2017-07-16T02:43:51.201Z,0
2017-07-16T02:44:51.251Z,0
2017-07-16T02:46:01.331Z,0
2017-07-16T02:46:50.859Z,0
2017-07-16T02:47:50.864Z,0
2017-07-16T02:48:50.856Z,0
2017-07-16T02:49:52.431Z,0
2017-07-16T02:51:01.917Z,0
2017-07-16T02:51:51.541Z,0
2017-07-16T02:52:51.210Z,0
2017-07-16T02:53:50.858Z,0
2017-07-16T02:54:51.582Z,0
2017-07-16T02:56:02.652Z,4
2017-07-16T02:56:50.845Z,4
2017-07-16T02:57:51.205Z,4
2017-07-16T02:58:51.442Z,0
2017-07-16T02:59:51.717Z,0
2017-07-16T03:01:01.989Z,0
2017-07-16T03:01:50.910Z,4
2017-07-16T03:02:50.853Z,4
2017-07-16T03:03:51.606Z,0
2017-07-16T03:04:51.350Z,4
2017-07-16T03:06:00.536Z,8
2017-07-16T03:06:51.189Z,4
2017-07-16T03:07:51.554Z,8
2017-07-16T03:08:51.185Z,8
2017-07-16T03:09:51.237Z,8
2017-07-16T03:10:59.370Z,8
2017-07-16T03:11:50.843Z,8
2017-07-16T03:12:51.517Z,12
2017-07-16T03:13:50.922Z,12
2017-07-16T03:14:50.558Z,16
2017-07-16T03:16:02.398Z,20
2017-07-16T03:16:50.854Z,16
2017-07-16T03:17:51.535Z,24
2017-07-16T03:18:51.188Z,28
2017-07-16T03:19:51.586Z,32
2017-07-16T03:21:01.904Z,36
2017-07-16T03:21:51.196Z,40
2017-07-16T03:22:50.855Z,40
2017-07-16T03:23:51.177Z,48
2017-07-16T03:24:50.910Z,52
2017-07-16T03:26:01.262Z,60
2017-07-16T03:26:51.190Z,64
2017-07-16T03:27:51.175Z,72
2017-07-16T03:28:51.166Z,76
2017-07-16T03:29:51.219Z,88
2017-07-16T03:31:02.707Z,104
2017-07-16T03:31:50.490Z,108
2017-07-16T03:32:51.508Z,120
2017-07-16T03:33:51.510Z,124
2017-07-16T03:34:51.313Z,132
2017-07-16T03:36:01.439Z,144
2017-07-16T03:36:50.829Z,148
2017-07-16T03:37:51.161Z,152
2017-07-16T03:38:50.836Z,160
2017-07-16T03:39:51.218Z,164
2017-07-16T03:41:02.749Z,172
2017-07-16T03:41:50.825Z,176
2017-07-16T03:42:50.817Z,176
2017-07-16T03:43:50.827Z,184
2017-07-16T03:44:51.559Z,192
2017-07-16T03:45:59.721Z,200
2017-07-16T03:46:51.173Z,204
2017-07-16T03:47:51.188Z,208
2017-07-16T03:48:51.497Z,224
2017-07-16T03:49:51.368Z,240
2017-07-16T03:51:00.133Z,260
2017-07-16T03:51:51.492Z,280
2017-07-16T03:52:51.162Z,304
2017-07-16T03:53:51.490Z,332
2017-07-16T03:54:51.205Z,360
2017-07-16T03:56:00.839Z,392
2017-07-16T03:56:51.159Z,416
2017-07-16T03:57:51.488Z,436
2017-07-16T03:58:51.489Z,468
2017-07-16T03:59:50.872Z,492
2017-07-16T04:01:02.409Z,528
2017-07-16T04:01:51.153Z,552
2017-07-16T04:02:51.193Z,592
2017-07-16T04:03:51.157Z,632
2017-07-16T04:04:51.944Z,672
2017-07-16T04:05:59.584Z,720
2017-07-16T04:06:51.492Z,756
2017-07-16T04:07:51.495Z,800
2017-07-16T04:08:51.546Z,844
2017-07-16T04:09:51.487Z,904
2017-07-16T04:10:59.431Z,964
2017-07-16T04:11:50.487Z,1008
2017-07-16T04:12:50.495Z,1060
2017-07-16T04:13:51.169Z,1108
2017-07-16T04:14:51.514Z,1160
2017-07-16T04:16:02.680Z,1224
2017-07-16T04:16:51.156Z,1268
2017-07-16T04:17:50.831Z,1320
2017-07-16T04:18:51.165Z,1368
2017-07-16T04:19:51.153Z,1412
2017-07-16T04:21:06.188Z,1460
2017-07-16T04:21:51.188Z,1488
2017-07-16T04:22:51.487Z,1520
2017-07-16T04:23:51.154Z,1560
2017-07-16T04:24:51.159Z,1592
2017-07-16T04:25:57.807Z,1588
2017-07-16T04:26:51.037Z,1608
2017-07-16T04:27:50.815Z,1616
2017-07-16T04:28:51.153Z,1620
2017-07-16T04:29:51.488Z,1632
2017-07-16T04:31:01.628Z,1648
2017-07-16T04:31:50.880Z,1660
2017-07-16T04:32:51.167Z,1684
2017-07-16T04:33:50.941Z,1708
2017-07-16T04:34:50.810Z,1748
2017-07-16T04:36:01.850Z,1804
2017-07-16T04:36:50.919Z,1848
2017-07-16T04:37:51.503Z,1892
2017-07-16T04:38:51.162Z,1932
2017-07-16T04:39:50.814Z,1980
2017-07-16T04:41:01.040Z,2056
2017-07-16T04:41:50.888Z,2092
2017-07-16T04:42:50.478Z,2080
2017-07-16T04:43:51.505Z,2072
2017-07-16T04:44:50.826Z,2064
2017-07-16T04:45:59.275Z,2036
2017-07-16T04:46:50.908Z,2028
2017-07-16T04:47:50.485Z,2032
2017-07-16T04:48:51.157Z,2064
2017-07-16T04:49:50.839Z,2080
2017-07-16T04:51:01.474Z,2104
2017-07-16T04:51:53.335Z,2068
2017-07-16T04:52:50.823Z,2024
2017-07-16T04:53:50.486Z,2012
2017-07-16T04:54:51.159Z,2012
2017-07-16T04:56:01.268Z,2036
2017-07-16T04:56:51.225Z,2072
2017-07-16T04:57:51.185Z,2152
2017-07-16T04:58:51.507Z,2268
2017-07-16T04:59:50.491Z,2412
2017-07-16T05:00:58.981Z,2580
2017-07-16T05:01:51.274Z,2708
2017-07-16T05:02:51.172Z,2832
2017-07-16T05:03:50.882Z,2928
2017-07-16T05:04:50.492Z,3020
2017-07-16T05:06:00.942Z,3100
2017-07-16T05:06:51.621Z,3148
2017-07-16T05:07:50.492Z,3200
2017-07-16T05:08:50.847Z,3232
2017-07-16T05:09:51.522Z,3256
2017-07-16T05:11:00.685Z,3284
2017-07-16T05:11:50.881Z,3308
2017-07-16T05:12:51.182Z,3360
2017-07-16T05:13:51.177Z,3408
2017-07-16T05:14:50.842Z,3416
2017-07-16T05:15:57.958Z,3404
2017-07-16T05:16:51.972Z,3376
2017-07-16T05:17:51.645Z,3332
2017-07-16T05:18:51.529Z,3308
2017-07-16T05:19:50.941Z,3276
2017-07-16T05:20:58.509Z,3224
2017-07-16T05:21:51.743Z,3180
2017-07-16T05:22:51.517Z,3152
2017-07-16T05:23:51.189Z,3124
2017-07-16T05:24:50.518Z,3100
2017-07-16T05:26:00.435Z,3084
2017-07-16T05:26:51.637Z,3080
2017-07-16T05:27:52.308Z,3108
2017-07-16T05:28:51.540Z,3160
2017-07-16T05:29:51.531Z,3224
2017-07-16T05:31:00.605Z,3280
2017-07-16T05:31:50.863Z,3304
2017-07-16T05:32:51.586Z,3328
2017-07-16T05:33:50.527Z,3360
2017-07-16T05:34:51.221Z,3408
2017-07-16T05:36:01.677Z,3488
2017-07-16T05:36:51.546Z,3552
2017-07-16T05:37:51.017Z,3644
2017-07-16T05:38:50.876Z,3764
2017-07-16T05:39:51.259Z,3892
2017-07-16T05:41:01.528Z,4052
2017-07-16T05:41:51.596Z,4168
2017-07-16T05:42:50.922Z,4324
2017-07-16T05:43:50.667Z,4524
2017-07-16T05:44:51.225Z,4728
2017-07-16T05:46:01.597Z,4980
2017-07-16T05:46:51.230Z,5148
2017-07-16T05:47:51.273Z,5304
2017-07-16T05:48:50.879Z,5436
2017-07-16T05:49:51.274Z,5564
2017-07-16T05:51:04.010Z,5716
2017-07-16T05:51:50.889Z,5880
2017-07-16T05:52:52.177Z,6044
2017-07-16T05:53:51.231Z,6200
2017-07-16T05:54:50.894Z,6356
2017-07-16T05:55:58.635Z,6512
2017-07-16T05:56:51.239Z,6600
2017-07-16T05:57:51.287Z,6684
2017-07-16T05:58:51.252Z,6732
2017-07-16T05:59:51.249Z,6764
2017-07-16T06:01:00.550Z,6856
2017-07-16T06:01:51.018Z,7056
2017-07-16T06:02:51.301Z,7396
2017-07-16T06:03:50.645Z,9016
2017-07-16T06:04:50.915Z,13892
2017-07-16T06:05:59.062Z,14300
2017-07-16T06:06:51.603Z,15072
2017-07-16T06:07:52.843Z,9964
2017-07-16T06:08:51.290Z,10604
2017-07-16T06:09:50.926Z,8184
2017-07-16T06:10:58.886Z,8040
2017-07-16T06:11:51.272Z,8520
2017-07-16T06:12:51.660Z,8708
2017-07-16T06:13:51.277Z,9696
2017-07-16T06:14:50.939Z,11508
2017-07-16T06:15:58.512Z,11228
2017-07-16T06:16:50.956Z,9856
2017-07-16T06:17:51.339Z,10324
2017-07-16T06:18:51.635Z,12572
2017-07-16T06:19:51.302Z,17184
2017-07-16T06:20:58.841Z,13300
2017-07-16T06:21:51.326Z,13372
2017-07-16T06:22:52.118Z,15808
2017-07-16T06:23:51.340Z,11196
2017-07-16T06:24:51.685Z,10988
2017-07-16T06:26:01.537Z,11084
2017-07-16T06:26:51.337Z,10996
2017-07-16T06:27:51.416Z,11248
2017-07-16T06:28:51.345Z,9524
2017-07-16T06:29:51.026Z,9596
2017-07-16T06:30:59.949Z,9884
2017-07-16T06:31:51.364Z,8984
2017-07-16T06:32:51.449Z,11440
2017-07-16T06:33:50.690Z,10972
2017-07-16T06:34:51.042Z,10768
2017-07-16T06:35:59.436Z,10876
2017-07-16T06:36:51.045Z,10928
2017-07-16T06:37:51.749Z,12868
2017-07-16T06:38:51.061Z,13120
2017-07-16T06:39:51.401Z,16000
2017-07-16T06:40:59.216Z,13900
2017-07-16T06:41:51.098Z,12164
2017-07-16T06:42:51.903Z,13432
2017-07-16T06:43:51.429Z,11612
2017-07-16T06:44:51.800Z,10392
2017-07-16T06:45:59.850Z,8796
2017-07-16T06:46:51.789Z,8968
2017-07-16T06:47:51.519Z,8796
2017-07-16T06:48:51.456Z,8900
2017-07-16T06:49:51.469Z,9712
2017-07-16T06:50:59.932Z,11000
2017-07-16T06:51:51.178Z,12520
2017-07-16T06:52:53.911Z,10448
2017-07-16T06:53:51.332Z,9804
2017-07-16T06:54:51.194Z,9356
2017-07-16T06:55:59.697Z,10004
2017-07-16T06:56:51.685Z,11712
2017-07-16T06:57:52.029Z,12120
2017-07-16T06:58:51.633Z,11848
2017-07-16T06:59:51.651Z,12140
2017-07-16T07:00:58.859Z,13940
2017-07-16T07:01:51.565Z,13488
2017-07-16T07:02:51.555Z,14492
2017-07-16T07:03:51.540Z,14520
2017-07-16T07:04:51.210Z,15456
2017-07-16T07:06:02.733Z,16128
2017-07-16T07:06:52.445Z,15552
2017-07-16T07:07:51.373Z,14696
2017-07-16T07:08:55.222Z,14664
2017-07-16T07:09:52.039Z,14496
2017-07-16T07:11:00.668Z,15488
2017-07-16T07:11:51.585Z,16096
2017-07-16T07:12:51.264Z,15712
2017-07-16T07:13:51.320Z,15360
2017-07-16T07:14:51.608Z,14660
2017-07-16T07:15:59.312Z,13408
2017-07-16T07:16:51.958Z,14412
2017-07-16T07:17:51.972Z,13156
2017-07-16T07:18:51.347Z,13540
2017-07-16T07:19:51.975Z,14388
2017-07-16T07:21:00.472Z,14044
2017-07-16T07:21:51.316Z,13952
2017-07-16T07:22:51.659Z,12916
2017-07-16T07:23:53.576Z,12912
2017-07-16T07:24:52.021Z,13252
2017-07-16T07:25:59.156Z,12448
2017-07-16T07:26:51.696Z,11412
2017-07-16T07:27:51.379Z,11908
2017-07-16T07:28:52.135Z,11748
2017-07-16T07:29:51.716Z,12812
2017-07-16T07:30:59.230Z,11948
2017-07-16T07:31:51.732Z,10888
2017-07-16T07:32:51.731Z,10848
2017-07-16T07:33:51.811Z,11412
2017-07-16T07:34:51.410Z,10924
2017-07-16T07:35:59.991Z,12064
2017-07-16T07:36:51.426Z,12092
2017-07-16T07:37:51.429Z,11660
2017-07-16T07:38:54.805Z,11296
2017-07-16T07:39:51.833Z,10152
2017-07-16T07:40:59.975Z,9260
2017-07-16T07:41:52.069Z,9060
2017-07-16T07:42:51.563Z,9668
2017-07-16T07:43:52.239Z,9372
2017-07-16T07:44:52.196Z,10284
2017-07-16T07:45:58.199Z,10064
2017-07-16T07:46:51.579Z,10252
2017-07-16T07:47:51.842Z,12464
2017-07-16T07:48:51.901Z,13944
2017-07-16T07:49:51.560Z,13832
2017-07-16T07:51:00.525Z,13028
2017-07-16T07:51:52.209Z,12584
2017-07-16T07:52:51.546Z,15000
2017-07-16T07:53:52.194Z,13352
2017-07-16T07:54:52.248Z,12556
2017-07-16T07:55:59.364Z,11784
2017-07-16T07:56:51.935Z,12028
2017-07-16T07:57:51.926Z,12520
2017-07-16T07:58:52.314Z,12376
2017-07-16T07:59:52.080Z,13644
2017-07-16T08:01:07.402Z,12608
2017-07-16T08:02:05.261Z,12760
2017-07-16T08:03:08.240Z,11864
2017-07-16T08:05:05.182Z,11024
2017-07-16T08:06:07.841Z,11532
2017-07-16T08:07:02.125Z,11896
2017-07-16T08:08:01.177Z,13528
2017-07-16T08:08:51.653Z,12596
2017-07-16T08:09:52.142Z,10752
2017-07-16T08:11:00.533Z,10464
2017-07-16T08:11:52.447Z,10424
2017-07-16T08:12:51.831Z,11604
2017-07-16T08:13:52.352Z,13064
2017-07-16T08:14:52.492Z,13140
2017-07-16T08:15:59.644Z,12932
2017-07-16T08:16:52.622Z,13684
2017-07-16T08:17:52.113Z,12668
2017-07-16T08:18:52.121Z,13508
2017-07-16T08:19:52.157Z,13276
2017-07-16T08:21:01.499Z,13180
2017-07-16T08:21:52.130Z,12640
2017-07-16T08:22:51.799Z,11892
2017-07-16T08:23:52.154Z,12584
2017-07-16T08:24:52.464Z,11692
2017-07-16T08:26:00.937Z,12952
2017-07-16T08:26:52.153Z,11156
2017-07-16T08:27:52.267Z,10804
2017-07-16T08:28:52.207Z,12236
2017-07-16T08:29:52.626Z,11956
2017-07-16T08:31:00.694Z,12120
2017-07-16T08:31:52.316Z,11832
2017-07-16T08:32:51.557Z,11540
2017-07-16T08:33:51.515Z,12088
2017-07-16T08:34:52.641Z,10964
2017-07-16T08:35:59.049Z,11900
2017-07-16T08:36:52.012Z,11852
2017-07-16T08:37:51.981Z,11792
2017-07-16T08:38:52.525Z,11928
2017-07-16T08:39:52.936Z,12296
2017-07-16T08:40:57.664Z,10900
2017-07-16T08:41:52.284Z,10864
2017-07-16T08:42:51.702Z,11100
2017-07-16T08:43:51.958Z,11220
2017-07-16T08:44:52.674Z,11776
2017-07-16T08:46:00.010Z,12824
2017-07-16T08:46:52.340Z,11988
2017-07-16T08:47:52.331Z,12024
2017-07-16T08:48:51.975Z,11668
2017-07-16T08:49:52.392Z,11568
2017-07-16T08:50:59.383Z,10800
2017-07-16T08:51:52.331Z,10252
2017-07-16T08:52:52.341Z,9968
2017-07-16T08:53:52.785Z,11664
2017-07-16T08:54:54.569Z,11080
2017-07-16T08:55:59.610Z,11520
2017-07-16T08:56:52.088Z,10696
2017-07-16T08:57:52.039Z,10292
2017-07-16T08:58:52.565Z,9216
2017-07-16T08:59:52.458Z,9236
2017-07-16T09:01:02.002Z,9148
2017-07-16T09:01:52.615Z,9004
2017-07-16T09:02:52.422Z,8856
2017-07-16T09:03:52.958Z,8240
2017-07-16T09:04:52.989Z,8424
2017-07-16T09:06:01.851Z,8196
2017-07-16T09:06:52.096Z,7792
2017-07-16T09:07:52.788Z,8772
2017-07-16T09:08:52.836Z,7948
2017-07-16T09:09:52.508Z,8072
2017-07-16T09:10:58.907Z,8988
2017-07-16T09:11:52.130Z,9108
2017-07-16T09:12:52.150Z,8668
2017-07-16T09:13:52.479Z,9296
2017-07-16T09:14:52.840Z,9208
2017-07-16T09:15:59.569Z,9400
2017-07-16T09:16:51.844Z,9520
2017-07-16T09:17:52.854Z,9672
2017-07-16T09:18:52.211Z,9116
2017-07-16T09:19:52.855Z,9152
2017-07-16T09:20:59.308Z,9740
2017-07-16T09:21:52.197Z,9108
2017-07-16T09:22:52.532Z,8864
2017-07-16T09:23:52.213Z,8712
2017-07-16T09:24:52.889Z,9020
2017-07-16T09:25:58.376Z,8484
2017-07-16T09:26:52.562Z,8336
2017-07-16T09:27:52.252Z,7868
2017-07-16T09:28:52.235Z,8392
2017-07-16T09:29:52.254Z,8192
2017-07-16T09:31:01.823Z,8576
2017-07-16T09:31:52.602Z,8248
2017-07-16T09:32:52.949Z,8152
2017-07-16T09:33:52.279Z,8024
2017-07-16T09:34:52.694Z,8024
2017-07-16T09:36:03.108Z,7868
2017-07-16T09:36:52.882Z,7800
2017-07-16T09:37:52.690Z,7688
2017-07-16T09:38:51.968Z,7596
2017-07-16T09:39:52.768Z,7492
2017-07-16T09:40:59.552Z,7320
2017-07-16T09:41:53.122Z,7300
2017-07-16T09:42:57.678Z,7168
2017-07-16T09:43:52.740Z,7116
2017-07-16T09:44:52.817Z,7020
2017-07-16T09:45:57.993Z,6888
2017-07-16T09:46:52.560Z,6788
2017-07-16T09:47:53.055Z,6788
2017-07-16T09:48:53.053Z,6780
2017-07-16T09:49:52.746Z,6592
2017-07-16T09:51:00.415Z,6580
2017-07-16T09:51:52.827Z,6496
2017-07-16T09:52:53.174Z,6540
2017-07-16T09:53:52.415Z,6628
2017-07-16T09:54:53.086Z,6536
2017-07-16T09:55:58.549Z,6448
2017-07-16T09:56:53.969Z,6440
2017-07-16T09:57:52.402Z,6516
2017-07-16T09:58:53.100Z,6436
2017-07-16T09:59:52.194Z,6452
2017-07-16T10:01:06.363Z,6444
2017-07-16T10:02:02.893Z,6480
2017-07-16T10:02:57.258Z,6472
2017-07-16T10:03:52.632Z,6492
2017-07-16T10:04:52.096Z,6604
2017-07-16T10:05:57.839Z,6572
2017-07-16T10:06:52.912Z,6572
2017-07-16T10:07:52.789Z,6540
2017-07-16T10:08:52.509Z,6612
2017-07-16T10:09:53.137Z,6592
2017-07-16T10:11:00.730Z,6596
2017-07-16T10:11:53.191Z,6600
2017-07-16T10:12:52.874Z,6620
2017-07-16T10:13:52.507Z,6668
2017-07-16T10:14:52.599Z,6664
2017-07-16T10:16:01.138Z,6580
2017-07-16T10:16:52.897Z,6176
2017-07-16T10:17:52.846Z,6408
2017-07-16T10:18:52.848Z,6552
2017-07-16T10:19:52.604Z,6520
2017-07-16T10:21:01.838Z,6480
2017-07-16T10:21:52.527Z,6448
2017-07-16T10:22:52.859Z,6424
2017-07-16T10:23:52.923Z,6404
2017-07-16T10:24:52.372Z,6584
2017-07-16T10:26:01.108Z,6648
2017-07-16T10:26:52.895Z,6744
2017-07-16T10:27:52.551Z,6844
2017-07-16T10:28:53.042Z,6916
2017-07-16T10:29:53.248Z,6956
2017-07-16T10:31:01.334Z,7032
2017-07-16T10:31:52.887Z,7080
2017-07-16T10:32:52.841Z,7044
2017-07-16T10:33:53.039Z,7064
2017-07-16T10:34:53.088Z,7092
2017-07-16T10:36:00.733Z,7064
2017-07-16T10:36:52.623Z,6944
2017-07-16T10:37:54.360Z,6872
2017-07-16T10:38:53.284Z,6744
2017-07-16T10:39:53.320Z,6620
2017-07-16T10:41:02.583Z,6672
2017-07-16T10:41:53.448Z,6820
2017-07-16T10:42:52.803Z,7020
2017-07-16T10:43:53.096Z,7152
2017-07-16T10:44:52.362Z,7192
2017-07-16T10:46:02.988Z,7060
2017-07-16T10:46:53.168Z,6980
2017-07-16T10:47:53.484Z,6584
2017-07-16T10:48:52.731Z,7032
2017-07-16T10:49:52.731Z,5000
2017-07-16T10:51:03.368Z,4920
2017-07-16T10:51:53.059Z,5284
2017-07-16T10:52:52.920Z,5684
2017-07-16T10:53:53.491Z,4836
2017-07-16T10:54:53.398Z,5552
2017-07-16T10:56:01.048Z,5372
2017-07-16T10:56:56.473Z,6436
2017-07-16T10:58:02.316Z,5944
2017-07-16T10:58:58.248Z,6520
2017-07-16T10:59:52.835Z,6744
2017-07-16T11:01:05.954Z,6700
2017-07-16T11:01:53.127Z,6716
2017-07-16T11:02:52.466Z,6732
2017-07-16T11:03:53.165Z,6248
2017-07-16T11:04:53.261Z,6832
2017-07-16T11:06:00.403Z,6676
2017-07-16T11:06:57.356Z,6804
2017-07-16T11:07:59.110Z,6952
2017-07-16T11:08:57.048Z,7104
2017-07-16T11:09:53.067Z,6992
2017-07-16T11:10:58.287Z,6136
2017-07-16T11:11:52.856Z,6380
2017-07-16T11:12:53.633Z,7392
2017-07-16T11:13:53.256Z,7524
2017-07-16T11:14:53.355Z,7648
2017-07-16T11:16:01.573Z,7664
2017-07-16T11:16:52.824Z,6472
2017-07-16T11:17:52.866Z,6632
2017-07-16T11:18:52.911Z,6828
2017-07-16T11:19:53.346Z,7120
2017-07-16T11:21:00.098Z,8436
2017-07-16T11:21:53.259Z,9084
2017-07-16T11:22:52.519Z,9712
2017-07-16T11:23:53.498Z,9672
2017-07-16T11:24:53.287Z,9620
2017-07-16T11:26:02.539Z,9384
2017-07-16T11:26:53.272Z,9392
2017-07-16T11:27:53.532Z,9936
2017-07-16T11:28:52.911Z,9800
2017-07-16T11:29:53.269Z,10044
2017-07-16T11:31:00.378Z,9700
2017-07-16T11:31:52.945Z,9852
2017-07-16T11:32:53.329Z,9576
2017-07-16T11:33:54.216Z,9540
2017-07-16T11:34:53.277Z,9528
2017-07-16T11:36:01.942Z,9376
2017-07-16T11:36:53.367Z,9500
2017-07-16T11:37:53.069Z,9920
2017-07-16T11:38:54.163Z,10112
2017-07-16T11:39:54.134Z,9512
2017-07-16T11:41:02.604Z,9604
2017-07-16T11:41:54.139Z,9732
2017-07-16T11:42:53.509Z,9576
2017-07-16T11:43:53.716Z,9496
2017-07-16T11:44:53.328Z,9076
2017-07-16T11:46:02.063Z,8484
2017-07-16T11:46:53.530Z,7876
2017-07-16T11:47:54.017Z,7356
2017-07-16T11:48:55.203Z,8276
2017-07-16T11:49:53.601Z,7900
2017-07-16T11:50:56.974Z,8460
2017-07-16T11:51:53.504Z,8360
2017-07-16T11:52:53.884Z,8432
2017-07-16T11:53:55.417Z,8332
2017-07-16T11:54:54.752Z,8360
2017-07-16T11:56:01.895Z,8304
2017-07-16T11:56:53.380Z,8688
2017-07-16T11:57:53.943Z,8836
2017-07-16T11:58:57.970Z,8912
2017-07-16T11:59:54.508Z,9036
2017-07-16T12:00:59.643Z,9128
2017-07-16T12:01:58.837Z,8868
2017-07-16T12:02:58.226Z,8356
2017-07-16T12:03:57.043Z,8116
2017-07-16T12:04:58.450Z,8116
2017-07-16T12:06:01.089Z,8024
2017-07-16T12:07:00.721Z,7852
2017-07-16T12:07:58.196Z,8136
2017-07-16T12:08:58.517Z,8012
2017-07-16T12:09:58.344Z,8140
2017-07-16T12:10:58.941Z,8408
2017-07-16T12:12:01.666Z,7944
2017-07-16T12:12:55.554Z,7856
2017-07-16T12:13:54.224Z,7876
2017-07-16T12:14:54.017Z,7988
2017-07-16T12:15:56.757Z,8140
2017-07-16T12:16:53.405Z,8336
2017-07-16T12:17:54.367Z,8440
2017-07-16T12:18:53.997Z,8692
2017-07-16T12:19:54.013Z,8512
2017-07-16T12:21:01.990Z,8588
2017-07-16T12:21:53.916Z,8740
2017-07-16T12:22:53.261Z,9128
2017-07-16T12:23:53.788Z,10092
2017-07-16T12:24:55.107Z,10028
2017-07-16T12:26:02.875Z,10600
2017-07-16T12:26:54.482Z,10908
2017-07-16T12:27:53.759Z,11272
2017-07-16T12:28:53.946Z,11640
2017-07-16T12:29:57.487Z,11768
2017-07-16T12:31:02.860Z,12072
2017-07-16T12:31:53.465Z,11560
2017-07-16T12:32:53.946Z,11436
2017-07-16T12:33:55.724Z,11608
2017-07-16T12:34:53.566Z,11864
2017-07-16T12:35:59.190Z,12056
2017-07-16T12:36:54.033Z,12220
2017-07-16T12:37:53.510Z,12124
2017-07-16T12:38:53.900Z,12188
2017-07-16T12:39:53.449Z,12316
2017-07-16T12:41:01.359Z,12620
2017-07-16T12:41:53.862Z,12844
2017-07-16T12:42:54.135Z,12700
2017-07-16T12:43:53.676Z,12336
2017-07-16T12:44:53.988Z,12232
2017-07-16T12:46:04.166Z,12236
2017-07-16T12:46:53.468Z,12296
2017-07-16T12:47:53.671Z,12452
2017-07-16T12:48:53.865Z,12596
2017-07-16T12:49:54.427Z,12672
2017-07-16T12:50:59.485Z,12692
2017-07-16T12:51:54.150Z,12736
2017-07-16T12:52:54.617Z,12816
2017-07-16T12:53:54.613Z,12800
2017-07-16T12:54:55.664Z,12716
2017-07-16T12:56:00.153Z,12668
2017-07-16T12:56:54.133Z,12700
2017-07-16T12:57:54.161Z,12712
2017-07-16T12:58:53.802Z,12656
2017-07-16T12:59:57.248Z,12480
2017-07-16T13:00:59.935Z,12288
2017-07-16T13:01:54.556Z,12148
2017-07-16T13:02:53.989Z,12056
2017-07-16T13:03:54.896Z,11972
2017-07-16T13:04:54.816Z,12004
2017-07-16T13:05:59.979Z,12096
2017-07-16T13:06:56.820Z,12176
2017-07-16T13:07:59.618Z,12284
2017-07-16T13:08:59.516Z,12404
2017-07-16T13:09:53.764Z,12528
2017-07-16T13:11:00.151Z,12668
2017-07-16T13:11:54.839Z,12760
2017-07-16T13:12:54.746Z,12820
2017-07-16T13:13:54.334Z,12888
2017-07-16T13:14:55.023Z,12944
2017-07-16T13:16:01.633Z,12952
2017-07-16T13:16:54.699Z,12840
2017-07-16T13:17:54.630Z,12704
2017-07-16T13:18:54.609Z,12584
2017-07-16T13:19:54.960Z,12464
2017-07-16T13:21:00.418Z,12272
2017-07-16T13:21:58.269Z,12072
2017-07-16T13:22:54.434Z,11812
2017-07-16T13:23:54.750Z,11476
2017-07-16T13:24:54.590Z,11116
2017-07-16T13:26:00.130Z,10748
2017-07-16T13:26:54.285Z,10440
2017-07-16T13:27:54.531Z,10112
2017-07-16T13:28:54.658Z,9752
2017-07-16T13:29:53.761Z,9556
2017-07-16T13:31:07.055Z,9376
2017-07-16T13:31:53.618Z,9236
2017-07-16T13:32:54.321Z,9100
2017-07-16T13:33:53.312Z,8960
2017-07-16T13:34:53.974Z,8868